Time;durP1;ratioP1;P1;durP2;ratioP2;P2;SDS_P1;SDS_P2;PMS_P1;PMS_P2;Temp;Humidity;BMP_temperature;BMP_pressure;BME280_temperature;BME280_humidity;BME280_pressure;Samples;Min_cycle;Max_cycle;Signal;HPM_P1;HPM_P2
2021/07/15 00:02:21;;;;;;;0.43;0.30;;;23.70;62.00;;;;;;5057585;28;20525;-58
2021/07/15 00:04:47;;;;;;;0.30;0.30;;;23.70;61.60;;;;;;5065184;28;20078;-44
2021/07/15 00:07:15;;;;;;;1.35;0.50;;;23.70;61.70;;;;;;5068547;28;20404;-49
2021/07/15 00:09:42;;;;;;;0.40;0.20;;;23.70;61.40;;;;;;5065969;28;20023;-44
2021/07/15 00:12:10;;;;;;;0.40;0.30;;;23.70;61.50;;;;;;5068973;28;20067;-44
2021/07/15 00:14:36;;;;;;;0.88;0.30;;;23.70;61.90;;;;;;5064744;28;20036;-48
2021/07/15 00:17:03;;;;;;;0.52;0.20;;;23.70;61.60;;;;;;5068876;28;20032;-44
2021/07/15 00:19:29;;;;;;;0.52;0.32;;;23.60;61.00;;;;;;5066406;28;20024;-44
2021/07/15 00:21:57;;;;;;;0.80;0.30;;;23.70;61.20;;;;;;5066166;28;20515;-44
2021/07/15 00:24:24;;;;;;;0.20;0.20;;;23.60;61.40;;;;;;5064438;28;20024;-58
2021/07/15 00:26:50;;;;;;;0.30;0.30;;;23.60;61.30;;;;;;5058428;28;20028;-44
2021/07/15 00:29:15;;;;;;;0.20;0.20;;;23.70;61.60;;;;;;5066165;28;20029;-47
2021/07/15 00:31:41;;;;;;;0.35;0.20;;;23.70;61.50;;;;;;5068113;28;20016;-44
2021/07/15 00:34:07;;;;;;;0.20;0.20;;;23.60;61.50;;;;;;5056793;28;20470;-45
2021/07/15 00:36:33;;;;;;;0.38;0.20;;;23.70;61.30;;;;;;5054997;28;20436;-46
2021/07/15 00:38:59;;;;;;;0.57;0.40;;;23.60;61.30;;;;;;5066124;28;20029;-50
2021/07/15 00:41:24;;;;;;;0.35;0.25;;;23.60;61.30;;;;;;5059875;28;20121;-58
2021/07/15 00:43:50;;;;;;;0.47;0.20;;;23.60;61.40;;;;;;5062290;28;20036;-45
2021/07/15 00:46:16;;;;;;;0.50;0.20;;;23.60;61.30;;;;;;5064549;28;21659;-49
2021/07/15 00:48:42;;;;;;;0.40;0.20;;;23.60;61.30;;;;;;5054760;28;20039;-47
2021/07/15 00:51:08;;;;;;;0.82;0.30;;;23.60;61.50;;;;;;5065965;28;20029;-52
2021/07/15 00:53:35;;;;;;;0.22;0.20;;;23.60;61.70;;;;;;5053317;28;20024;-46
2021/07/15 00:56:01;;;;;;;0.40;0.40;;;23.60;61.60;;;;;;5071792;28;20462;-44
2021/07/15 00:58:27;;;;;;;0.20;0.20;;;23.60;61.50;;;;;;5055126;28;20037;-45
2021/07/15 01:00:53;;;;;;;0.28;0.17;;;23.60;61.50;;;;;;5069160;28;20398;-49
2021/07/15 01:03:20;;;;;;;0.30;0.20;;;23.60;61.60;;;;;;5065053;28;20032;-44
2021/07/15 01:05:49;;;;;;;0.90;0.25;;;23.60;61.30;;;;;;5059379;28;20033;-46
2021/07/15 01:08:15;;;;;;;0.47;0.22;;;23.60;61.40;;;;;;5057031;28;20521;-47
2021/07/15 01:10:52;;;;;;;1.27;0.20;;;23.60;61.70;;;;;;5056713;28;20028;-51
2021/07/15 01:13:36;;;;;;;1.35;0.30;;;23.60;62.40;;;;;;5054081;28;20475;-50
2021/07/15 01:16:14;;;;;;;0.20;0.20;;;23.60;61.60;;;;;;5061786;28;20040;-46
2021/07/15 01:19:01;;;;;;;0.20;0.20;;;23.60;61.50;;;;;;5064877;28;20111;-47
2021/07/15 01:21:51;;;;;;;0.10;0.10;;;23.60;61.40;;;;;;5058703;28;20025;-45
2021/07/15 01:24:38;;;;;;;0.25;0.20;;;23.60;61.60;;;;;;5056919;28;20044;-45
2021/07/15 01:27:29;;;;;;;1.35;0.20;;;23.60;61.70;;;;;;5058606;28;20025;-46
2021/07/15 01:30:01;;;;;;;0.45;0.30;;;23.70;61.70;;;;;;5026240;28;20505;-45
2021/07/15 01:32:29;;;;;;;0.10;0.10;;;23.60;61.50;;;;;;5060769;28;20047;-57
2021/07/15 01:35:01;;;;;;;0.40;0.20;;;23.60;61.50;;;;;;5056763;28;20041;-43
2021/07/15 01:37:29;;;;;;;;;;;23.60;61.50;;;;;;5054509;28;20028;-48
2021/07/15 01:39:56;;;;;;;0.28;0.20;;;23.60;61.50;;;;;;5063215;28;19913;-45
2021/07/15 01:42:22;;;;;;;0.20;0.20;;;23.60;61.40;;;;;;5067059;28;20388;-43
2021/07/15 01:44:49;;;;;;;0.35;0.20;;;23.60;61.60;;;;;;5058506;28;20044;-43
2021/07/15 01:47:17;;;;;;;1.40;0.20;;;23.60;61.60;;;;;;5063144;28;20103;-43
2021/07/15 01:49:43;;;;;;;1.50;0.22;;;23.60;61.30;;;;;;5058236;28;20029;-43
2021/07/15 01:52:09;;;;;;;0.10;0.10;;;23.60;61.40;;;;;;5059754;28;20032;-44
2021/07/15 01:54:35;;;;;;;0.40;0.30;;;23.60;61.20;;;;;;5053899;28;20044;-45
2021/07/15 01:57:05;;;;;;;0.15;0.15;;;23.60;61.30;;;;;;5067381;28;20040;-43
2021/07/15 01:59:32;;;;;;;0.20;0.20;;;23.50;61.20;;;;;;5060300;28;20025;-43
2021/07/15 02:01:59;;;;;;;0.20;0.20;;;23.50;61.20;;;;;;5068440;28;20033;-43
2021/07/15 02:04:29;;;;;;;1.08;0.30;;;23.50;61.10;;;;;;5061116;28;20028;-58
2021/07/15 02:06:55;;;;;;;0.28;0.17;;;23.60;61.00;;;;;;5068763;28;20033;-43
2021/07/15 02:09:22;;;;;;;0.20;0.20;;;23.60;61.20;;;;;;5062057;28;20029;-43
2021/07/15 02:11:51;;;;;;;0.43;0.30;;;23.60;61.40;;;;;;5066219;28;20067;-43
2021/07/15 02:14:21;;;;;;;0.20;0.15;;;23.60;61.10;;;;;;5057519;28;20040;-45
2021/07/15 02:16:51;;;;;;;0.25;0.20;;;23.60;61.30;;;;;;5054734;28;20021;-44
2021/07/15 02:19:18;;;;;;;0.20;0.20;;;23.60;61.10;;;;;;5058704;28;20028;-44
2021/07/15 02:21:45;;;;;;;0.30;0.20;;;23.60;61.10;;;;;;5056613;28;20804;-43
2021/07/15 02:24:15;;;;;;;0.75;0.10;;;23.60;60.90;;;;;;5051733;28;20029;-43
2021/07/15 02:26:43;;;;;;;0.10;0.10;;;23.60;61.20;;;;;;5056748;28;20028;-43
2021/07/15 02:29:09;;;;;;;0.20;0.20;;;23.60;61.10;;;;;;5056773;28;20048;-43
2021/07/15 02:31:46;;;;;;;0.20;0.20;;;23.60;61.10;;;;;;5059106;28;20028;-46
2021/07/15 02:34:26;;;;;;;0.40;0.10;;;23.60;61.10;;;;;;5063236;28;20025;-44
2021/07/15 02:36:53;;;;;;;0.20;0.20;;;23.60;61.10;;;;;;5061854;28;20064;-43
2021/07/15 02:39:18;;;;;;;0.45;0.10;;;23.60;60.80;;;;;;5060027;28;20036;-44
2021/07/15 02:41:44;;;;;;;0.10;0.10;;;23.60;60.70;;;;;;5050442;28;20045;-43
2021/07/15 02:44:10;;;;;;;0.20;0.20;;;23.60;60.50;;;;;;5058146;28;20033;-44
2021/07/15 02:46:36;;;;;;;0.10;0.10;;;23.60;60.00;;;;;;5058542;28;20163;-43
2021/07/15 02:49:04;;;;;;;0.22;0.10;;;23.60;60.00;;;;;;5059727;28;20059;-44
2021/07/15 02:51:30;;;;;;;1.25;0.20;;;23.60;60.70;;;;;;5062409;28;20070;-57
2021/07/15 02:53:56;;;;;;;0.10;0.10;;;23.60;60.10;;;;;;5062249;28;20041;-53
2021/07/15 02:56:27;;;;;;;0.10;0.10;;;23.60;60.10;;;;;;5067063;28;20028;-43
2021/07/15 02:59:18;;;;;;;0.30;0.25;;;23.60;60.30;;;;;;5059272;28;20029;-49
2021/07/15 03:01:49;;;;;;;0.17;0.10;;;23.60;60.80;;;;;;5063016;28;20120;-47
2021/07/15 03:04:32;;;;;;;0.17;0.17;;;23.60;60.40;;;;;;5062702;28;20102;-46
2021/07/15 03:07:02;;;;;;;0.55;0.10;;;23.60;60.10;;;;;;5072720;28;20435;-44
2021/07/15 03:09:31;;;;;;;0.85;0.10;;;23.60;60.10;;;;;;5062982;28;20474;-59
2021/07/15 03:12:08;;;;;;;0.47;0.10;;;23.60;60.40;;;;;;5062660;28;20498;-47
2021/07/15 03:14:38;;;;;;;0.35;0.20;;;23.60;60.00;;;;;;5061973;28;20108;-44
2021/07/15 03:17:08;;;;;;;0.75;0.55;;;23.60;60.40;;;;;;5063465;28;20025;-47
2021/07/15 03:19:37;;;;;;;0.25;0.20;;;23.60;60.80;;;;;;5068223;28;20020;-48
2021/07/15 03:22:05;;;;;;;0.10;0.10;;;23.60;60.10;;;;;;5062445;28;20024;-44
2021/07/15 03:24:39;;;;;;;0.10;0.10;;;23.60;60.50;;;;;;5061589;28;20021;-45
2021/07/15 03:27:05;;;;;;;0.10;0.10;;;23.60;60.70;;;;;;5064515;28;20036;-47
2021/07/15 03:29:36;;;;;;;1.20;0.38;;;23.60;60.50;;;;;;5054732;28;20033;-44
2021/07/15 03:32:04;;;;;;;0.20;0.20;;;23.60;60.60;;;;;;5069243;28;20040;-48
2021/07/15 03:34:31;;;;;;;0.82;0.10;;;23.60;60.70;;;;;;5070672;28;20501;-59
2021/07/15 03:36:58;;;;;;;0.10;0.10;;;23.60;60.20;;;;;;5059697;28;20029;-48
2021/07/15 03:39:24;;;;;;;0.10;0.10;;;23.60;60.50;;;;;;5068654;28;20492;-47
2021/07/15 03:41:51;;;;;;;0.10;0.10;;;23.60;60.40;;;;;;5069050;28;20021;-44
2021/07/15 03:44:18;;;;;;;1.30;0.15;;;23.60;60.70;;;;;;5062730;28;20082;-44
2021/07/15 03:46:45;;;;;;;0.15;0.10;;;23.60;60.70;;;;;;5068142;28;20025;-49
2021/07/15 03:49:16;;;;;;;0.38;0.20;;;23.60;60.70;;;;;;5064619;28;20033;-43
2021/07/15 03:51:42;;;;;;;0.10;0.10;;;23.60;60.60;;;;;;5063139;28;20063;-44
2021/07/15 03:54:09;;;;;;;1.48;0.10;;;23.60;60.60;;;;;;5062719;28;20033;-46
2021/07/15 03:56:38;;;;;;;0.13;0.10;;;23.60;60.40;;;;;;5060824;28;20029;-44
2021/07/15 03:59:05;;;;;;;0.10;0.10;;;23.60;60.60;;;;;;5061349;28;20382;-49
2021/07/15 04:01:32;;;;;;;1.80;0.15;;;23.60;60.50;;;;;;5060951;28;20478;-58
2021/07/15 04:04:00;;;;;;;0.50;0.17;;;23.60;60.40;;;;;;5058614;28;20074;-51
2021/07/15 04:06:28;;;;;;;0.10;0.10;;;23.60;60.30;;;;;;5056182;28;20078;-50
2021/07/15 04:08:55;;;;;;;0.38;0.20;;;23.60;60.00;;;;;;5068099;28;20075;-48
2021/07/15 04:11:23;;;;;;;0.10;0.10;;;23.60;60.00;;;;;;5072050;28;20044;-45
2021/07/15 04:13:50;;;;;;;0.20;0.10;;;23.60;60.30;;;;;;5068124;28;20034;-46
2021/07/15 04:16:16;;;;;;;1.02;0.20;;;23.60;60.10;;;;;;5058070;28;20427;-45
2021/07/15 04:18:43;;;;;;;0.10;0.10;;;23.60;60.20;;;;;;5064780;28;20092;-50
2021/07/15 04:21:11;;;;;;;0.10;0.10;;;23.60;60.40;;;;;;5060320;28;20063;-45
2021/07/15 04:23:38;;;;;;;0.10;0.10;;;23.60;61.10;;;;;;5062448;28;20466;-45
2021/07/15 04:26:05;;;;;;;0.10;0.10;;;23.60;60.50;;;;;;5064033;28;20040;-48
2021/07/15 04:28:31;;;;;;;0.55;0.20;;;23.60;60.50;;;;;;5064839;28;20033;-60
2021/07/15 04:31:18;;;;;;;0.65;0.20;;;23.60;60.40;;;;;;5060433;28;20028;-47
2021/07/15 04:33:45;;;;;;;0.13;0.10;;;23.60;60.40;;;;;;5061740;28;20028;-45
2021/07/15 04:36:12;;;;;;;0.10;0.10;;;23.60;60.40;;;;;;5067977;28;20052;-46
2021/07/15 04:38:37;;;;;;;0.10;0.10;;;23.60;60.60;;;;;;5064022;28;20032;-46
2021/07/15 04:41:04;;;;;;;0.68;0.20;;;23.60;60.40;;;;;;5069175;28;20044;-48
2021/07/15 04:43:30;;;;;;;0.10;0.10;;;23.60;60.50;;;;;;5068463;28;20099;-58
2021/07/15 04:45:58;;;;;;;1.02;0.20;;;23.60;60.50;;;;;;5067646;28;20024;-48
2021/07/15 04:48:24;;;;;;;0.15;0.15;;;23.60;60.50;;;;;;5069016;28;20081;-47
2021/07/15 04:50:51;;;;;;;0.45;0.10;;;23.70;60.50;;;;;;5068843;28;20029;-44
2021/07/15 04:53:19;;;;;;;0.20;0.10;;;23.60;60.40;;;;;;5050211;28;20086;-45
2021/07/15 04:55:47;;;;;;;0.20;0.20;;;23.60;60.50;;;;;;5067143;28;20119;-45
2021/07/15 04:58:13;;;;;;;0.20;0.10;;;23.60;60.50;;;;;;5068696;28;20041;-45
2021/07/15 05:00:39;;;;;;;0.20;0.20;;;23.60;60.40;;;;;;5068153;28;20500;-45
2021/07/15 05:03:07;;;;;;;0.70;0.32;;;23.60;60.30;;;;;;5067580;28;20060;-44
2021/07/15 05:05:33;;;;;;;0.10;0.10;;;23.60;60.40;;;;;;5067046;28;20048;-56
2021/07/15 05:07:59;;;;;;;0.45;0.13;;;23.60;60.40;;;;;;5068052;28;20075;-45
2021/07/15 05:10:25;;;;;;;1.70;0.22;;;23.60;60.40;;;;;;5066923;28;20032;-44
2021/07/15 05:12:50;;;;;;;0.10;0.10;;;23.60;60.50;;;;;;5069532;28;20021;-46
2021/07/15 05:15:16;;;;;;;0.40;0.20;;;23.60;60.30;;;;;;5069314;28;20082;-47
2021/07/15 05:17:42;;;;;;;0.75;0.65;;;23.60;60.50;;;;;;5061786;28;20098;-48
2021/07/15 05:20:08;;;;;;;0.40;0.22;;;23.60;60.60;;;;;;5059763;28;20347;-45
2021/07/15 05:22:35;;;;;;;0.43;0.25;;;23.70;60.60;;;;;;5063094;28;20040;-52
2021/07/15 05:25:01;;;;;;;1.25;0.28;;;23.70;61.10;;;;;;5059672;28;20032;-44
2021/07/15 05:27:27;;;;;;;0.40;0.40;;;23.80;60.60;;;;;;5066919;28;20021;-48
2021/07/15 05:29:52;;;;;;;1.25;0.47;;;23.80;60.60;;;;;;5051365;28;20020;-45
2021/07/15 05:32:18;;;;;;;0.38;0.20;;;23.80;60.60;;;;;;5068780;28;20028;-45
2021/07/15 05:34:44;;;;;;;0.80;0.80;;;23.80;60.60;;;;;;5065477;28;20104;-44
2021/07/15 05:37:09;;;;;;;2.30;0.63;;;23.80;60.80;;;;;;5061764;28;20033;-47
2021/07/15 05:39:38;;;;;;;2.25;0.40;;;23.80;61.10;;;;;;5060453;28;20025;-46
2021/07/15 05:42:04;;;;;;;2.10;0.30;;;23.80;60.90;;;;;;5059574;28;20033;-44
2021/07/15 05:44:29;;;;;;;2.25;0.30;;;23.80;60.90;;;;;;5060611;28;20031;-52
2021/07/15 05:46:55;;;;;;;7.57;0.55;;;23.80;61.20;;;;;;5053161;28;20078;-45
2021/07/15 05:49:20;;;;;;;2.72;0.63;;;23.80;61.40;;;;;;5068456;28;20028;-45
2021/07/15 05:51:46;;;;;;;3.58;0.55;;;23.90;61.10;;;;;;5069286;28;20473;-48
2021/07/15 05:54:15;;;;;;;1.85;0.45;;;23.90;60.90;;;;;;5068648;28;20046;-51
2021/07/15 05:56:41;;;;;;;4.00;0.40;;;23.90;61.10;;;;;;5067383;28;20039;-44
2021/07/15 05:59:07;;;;;;;4.50;0.70;;;23.90;61.10;;;;;;5047465;28;20111;-44
2021/07/15 06:01:33;;;;;;;5.72;0.52;;;23.90;61.30;;;;;;5052990;28;20045;-59
2021/07/15 06:03:58;;;;;;;3.22;0.57;;;23.90;61.20;;;;;;5058106;28;20028;-49
2021/07/15 06:06:24;;;;;;;6.90;0.52;;;23.90;61.30;;;;;;5061278;28;20401;-47
2021/07/15 06:08:50;;;;;;;6.45;1.00;;;23.90;61.40;;;;;;5069548;28;20485;-44
2021/07/15 06:11:15;;;;;;;4.35;0.50;;;23.90;61.40;;;;;;5055962;28;20065;-44
2021/07/15 06:13:41;;;;;;;6.50;0.73;;;23.90;61.30;;;;;;5064652;28;20118;-46
2021/07/15 06:16:07;;;;;;;4.25;0.70;;;23.90;61.20;;;;;;5062955;28;20028;-45
2021/07/15 06:18:33;;;;;;;5.13;0.55;;;23.90;61.10;;;;;;5060677;28;20025;-58
2021/07/15 06:20:59;;;;;;;1.42;0.30;;;23.90;61.10;;;;;;5062056;28;20024;-44
2021/07/15 06:23:25;;;;;;;3.58;0.50;;;23.90;61.10;;;;;;5067675;28;20134;-45
2021/07/15 06:25:51;;;;;;;5.57;0.68;;;23.90;61.00;;;;;;5061756;28;20496;-49
2021/07/15 06:28:17;;;;;;;2.53;0.40;;;23.90;61.10;;;;;;5062664;28;20111;-44
2021/07/15 06:30:42;;;;;;;5.82;0.45;;;23.90;61.00;;;;;;5054888;28;20411;-44
2021/07/15 06:33:08;;;;;;;0.40;0.32;;;23.90;61.00;;;;;;5070897;28;20381;-45
2021/07/15 06:35:40;;;;;;;1.52;0.30;;;23.80;61.00;;;;;;5060029;28;20040;-52
2021/07/15 06:38:06;;;;;;;1.98;0.50;;;23.80;60.90;;;;;;5038423;28;20036;-50
2021/07/15 06:40:32;;;;;;;3.40;0.60;;;23.90;60.90;;;;;;5072944;28;20031;-48
2021/07/15 06:42:58;;;;;;;0.98;0.40;;;23.90;60.90;;;;;;5053906;28;20108;-50
2021/07/15 06:45:24;;;;;;;3.67;0.98;;;23.90;60.90;;;;;;5031034;28;20590;-44
2021/07/15 06:47:50;;;;;;;2.25;0.43;;;23.80;60.90;;;;;;5031463;28;20037;-45
2021/07/15 06:50:17;;;;;;;1.90;0.43;;;23.90;60.90;;;;;;5032258;28;20048;-45
2021/07/15 06:52:44;;;;;;;3.63;0.40;;;23.90;60.80;;;;;;5014908;28;20096;-44
2021/07/15 06:55:11;;;;;;;2.92;0.40;;;23.90;60.80;;;;;;5015599;28;20511;-52
2021/07/15 06:57:37;;;;;;;1.35;0.40;;;23.90;60.90;;;;;;5033349;28;20037;-46
2021/07/15 07:00:12;;;;;;;2.70;0.45;;;23.90;60.90;;;;;;5047303;28;20177;-45
2021/07/15 07:02:39;;;;;;;1.27;0.43;;;23.90;60.70;;;;;;5048798;28;20041;-59
2021/07/15 07:05:06;;;;;;;1.63;0.50;;;23.90;60.30;;;;;;5052121;28;20053;-45
2021/07/15 07:07:33;;;;;;;3.67;0.45;;;23.90;59.80;;;;;;5052188;28;20845;-48
2021/07/15 07:09:59;;;;;;;0.82;0.32;;;23.90;59.30;;;;;;5051528;28;20099;-45
2021/07/15 07:12:25;;;;;;;2.42;0.30;;;23.90;58.90;;;;;;5052166;28;20040;-46
2021/07/15 07:14:50;;;;;;;4.53;1.13;;;23.80;58.20;;;;;;5050597;28;21452;-45
2021/07/15 07:17:16;;;;;;;2.63;0.30;;;23.80;59.40;;;;;;5035511;28;20033;-46
2021/07/15 07:19:42;;;;;;;1.30;0.32;;;23.70;60.20;;;;;;5051194;28;20100;-48
2021/07/15 07:22:08;;;;;;;0.95;0.30;;;23.70;59.00;;;;;;5052422;28;20250;-45
2021/07/15 07:24:33;;;;;;;1.67;0.40;;;23.70;58.50;;;;;;5054463;28;20033;-47
2021/07/15 07:26:59;;;;;;;0.57;0.20;;;23.80;57.70;;;;;;5053807;28;20466;-48
2021/07/15 07:29:25;;;;;;;1.08;0.20;;;23.80;57.70;;;;;;5053294;28;20097;-44
2021/07/15 07:31:50;;;;;;;1.33;0.32;;;23.80;57.40;;;;;;5052867;28;20021;-47
2021/07/15 07:34:16;;;;;;;1.80;0.40;;;23.80;57.60;;;;;;5054180;28;20033;-50
2021/07/15 07:36:42;;;;;;;1.73;0.20;;;23.80;57.30;;;;;;5053373;28;20111;-48
2021/07/15 07:39:09;;;;;;;0.85;0.43;;;23.80;57.40;;;;;;5053967;28;20068;-50
2021/07/15 07:41:35;;;;;;;0.50;0.30;;;23.80;57.30;;;;;;5053662;28;20545;-49
2021/07/15 07:44:01;;;;;;;0.93;0.28;;;23.80;57.30;;;;;;5053257;28;20071;-51
2021/07/15 07:46:27;;;;;;;0.82;0.30;;;23.80;57.30;;;;;;5053945;28;20416;-49
2021/07/15 07:48:52;;;;;;;0.63;0.30;;;23.70;57.90;;;;;;5052901;28;20506;-46
2021/07/15 07:51:18;;;;;;;1.10;0.20;;;23.70;59.10;;;;;;5054003;28;20442;-47
2021/07/15 07:53:45;;;;;;;0.60;0.40;;;23.70;59.30;;;;;;5052872;28;20052;-45
2021/07/15 07:56:13;;;;;;;1.02;0.32;;;23.70;59.50;;;;;;5052887;28;20033;-49
2021/07/15 07:58:38;;;;;;;1.33;0.30;;;23.70;59.50;;;;;;5051890;28;20059;-45
2021/07/15 08:01:04;;;;;;;3.42;0.40;;;23.80;59.70;;;;;;5065100;28;20049;-46
2021/07/15 08:03:31;;;;;;;2.03;0.32;;;23.80;59.60;;;;;;5068685;28;20024;-45
2021/07/15 08:05:56;;;;;;;0.50;0.22;;;23.80;59.70;;;;;;5070909;28;20043;-51
2021/07/15 08:08:22;;;;;;;2.40;0.20;;;23.80;59.80;;;;;;5054728;28;20033;-44
2021/07/15 08:10:49;;;;;;;1.88;0.40;;;23.80;59.60;;;;;;5057844;28;20028;-45
2021/07/15 08:13:15;;;;;;;0.98;0.77;;;23.80;59.50;;;;;;5055915;28;20033;-44
2021/07/15 08:15:41;;;;;;;0.90;0.30;;;23.80;59.70;;;;;;5060929;28;20074;-48
2021/07/15 08:18:07;;;;;;;3.55;1.25;;;23.90;59.90;;;;;;5055715;28;20044;-44
2021/07/15 08:20:33;;;;;;;0.38;0.30;;;23.90;60.00;;;;;;5066156;28;20029;-44
2021/07/15 08:22:59;;;;;;;1.02;0.40;;;23.90;60.00;;;;;;5068449;28;20702;-45
2021/07/15 08:25:25;;;;;;;0.40;0.25;;;23.90;60.20;;;;;;5069952;28;20060;-47
2021/07/15 08:27:50;;;;;;;1.13;0.25;;;23.90;60.30;;;;;;5064265;28;20063;-44
2021/07/15 08:30:17;;;;;;;0.65;0.30;;;23.90;60.30;;;;;;5056718;28;20028;-44
2021/07/15 08:32:43;;;;;;;0.35;0.30;;;23.90;60.30;;;;;;5053293;28;20035;-46
2021/07/15 08:35:09;;;;;;;0.70;0.20;;;23.90;60.30;;;;;;5052731;28;20045;-48
2021/07/15 08:37:35;;;;;;;0.80;0.40;;;23.80;60.40;;;;;;5054356;28;20114;-45
2021/07/15 08:40:05;;;;;;;1.00;0.30;;;23.90;60.30;;;;;;5052876;28;20938;-47
2021/07/15 08:42:32;;;;;;;2.35;0.30;;;23.90;60.20;;;;;;5054192;28;20378;-45
2021/07/15 08:45:01;;;;;;;1.25;0.25;;;23.80;60.40;;;;;;5051550;28;20028;-44
2021/07/15 08:47:28;;;;;;;1.52;0.30;;;23.90;60.30;;;;;;5069109;28;20389;-45
2021/07/15 08:49:54;;;;;;;0.20;0.15;;;23.90;60.30;;;;;;5051817;28;20033;-46
2021/07/15 08:52:20;;;;;;;1.13;0.20;;;23.90;60.20;;;;;;5054407;28;20112;-48
2021/07/15 08:57:26;;;;;;;0.22;0.22;;;23.90;60.10;;;;;;5047866;28;20025;-49
2021/07/15 08:59:52;;;;;;;4.88;0.20;;;23.90;60.00;;;;;;5071055;28;20051;-45
2021/07/15 09:02:20;;;;;;;1.00;0.28;;;23.90;60.00;;;;;;5056697;28;20032;-46
2021/07/15 09:04:47;;;;;;;0.75;0.20;;;23.90;60.20;;;;;;5059770;28;20131;-44
2021/07/15 09:07:14;;;;;;;0.55;0.25;;;23.90;60.10;;;;;;5055973;28;20103;-47
2021/07/15 09:09:40;;;;;;;1.23;0.40;;;23.90;60.10;;;;;;5069914;28;20107;-58
2021/07/15 09:12:06;;;;;;;2.17;0.38;;;23.90;60.00;;;;;;5054288;28;20530;-44
2021/07/15 09:14:46;;;;;;;0.43;0.30;;;23.90;59.90;;;;;;5053578;28;20115;-45
2021/07/15 09:17:13;;;;;;;1.80;0.40;;;23.90;59.80;;;;;;5065244;28;20112;-44
2021/07/15 09:19:41;;;;;;;1.38;0.30;;;23.90;59.70;;;;;;5069533;28;20028;-61
2021/07/15 09:22:14;;;;;;;0.22;0.20;;;23.80;60.00;;;;;;5060682;28;20079;-44
2021/07/15 09:24:45;;;;;;;0.70;0.40;;;23.90;59.90;;;;;;5065905;28;20028;-59
2021/07/15 09:27:12;;;;;;;1.27;0.40;;;23.90;59.80;;;;;;5054561;28;20413;-45
2021/07/15 09:29:38;;;;;;;1.23;0.70;;;23.90;59.80;;;;;;5066417;28;20051;-50
2021/07/15 09:32:04;;;;;;;1.77;0.40;;;23.90;59.90;;;;;;5052205;28;20041;-45
2021/07/15 09:34:32;;;;;;;0.85;0.30;;;23.90;60.00;;;;;;5067837;28;20412;-47
2021/07/15 09:37:07;;;;;;;0.38;0.28;;;23.90;60.10;;;;;;5054638;28;20035;-49
2021/07/15 09:39:44;;;;;;;0.60;0.30;;;23.90;60.10;;;;;;5063180;28;20078;-44
2021/07/15 09:42:18;;;;;;;0.85;0.30;;;23.90;60.00;;;;;;5071818;28;20074;-45
2021/07/15 09:44:47;;;;;;;0.52;0.30;;;23.90;59.90;;;;;;5059068;28;20064;-49
2021/07/15 09:47:44;;;;;;;5.28;1.30;;;23.90;59.90;;;;;;5058116;28;20355;-44
2021/07/15 09:50:23;;;;;;;0.28;0.25;;;23.90;60.20;;;;;;5057552;28;20474;-44
2021/07/15 09:52:49;;;;;;;0.20;0.20;;;23.90;60.40;;;;;;5067300;28;20100;-48
2021/07/15 09:55:25;;;;;;;0.40;0.35;;;23.90;60.50;;;;;;5056512;28;20124;-48
2021/07/15 09:58:09;;;;;;;0.73;0.22;;;23.90;60.50;;;;;;5068841;28;20028;-46
2021/07/15 10:00:39;;;;;;;0.80;0.30;;;23.90;60.60;;;;;;5065553;28;20124;-46
2021/07/15 10:03:07;;;;;;;1.13;0.30;;;23.90;60.40;;;;;;5052163;28;20036;-46
2021/07/15 10:05:34;;;;;;;2.33;0.30;;;23.90;60.30;;;;;;5052458;28;20083;-47
2021/07/15 10:08:09;;;;;;;0.68;0.28;;;23.90;60.30;;;;;;5056746;28;20036;-48
2021/07/15 10:10:36;;;;;;;1.45;0.30;;;23.90;60.30;;;;;;5060094;28;20036;-50
2021/07/15 10:13:12;;;;;;;2.67;0.30;;;23.90;60.30;;;;;;5069743;28;20032;-45
2021/07/15 10:15:38;;;;;;;0.73;0.60;;;23.90;60.40;;;;;;5066764;28;20036;-50
2021/07/15 10:18:04;;;;;;;2.15;0.40;;;23.90;60.50;;;;;;5065060;28;20445;-46
2021/07/15 10:20:30;;;;;;;1.27;0.22;;;23.90;60.60;;;;;;5056523;28;20036;-50
2021/07/15 10:22:56;;;;;;;0.50;0.20;;;23.90;60.70;;;;;;5064605;28;20025;-48
2021/07/15 10:25:22;;;;;;;1.77;0.30;;;23.90;60.70;;;;;;5066321;28;20059;-44
2021/07/15 10:27:47;;;;;;;0.25;0.20;;;23.80;60.90;;;;;;5064452;28;20021;-48
2021/07/15 10:30:16;;;;;;;0.80;0.30;;;23.80;60.80;;;;;;5073476;28;20037;-46
2021/07/15 10:32:42;;;;;;;0.25;0.25;;;23.80;60.90;;;;;;5074809;28;20102;-57
2021/07/15 10:35:12;;;;;;;0.70;0.20;;;23.80;60.70;;;;;;5074989;28;20033;-50
2021/07/15 10:37:45;;;;;;;0.55;0.28;;;23.80;60.80;;;;;;5074842;28;20416;-44
2021/07/15 10:40:15;;;;;;;0.55;0.30;;;23.90;61.00;;;;;;5058340;28;20062;-46
2021/07/15 10:42:40;;;;;;;0.30;0.20;;;23.90;61.60;;;;;;5073863;28;20531;-46
2021/07/15 10:45:08;;;;;;;1.45;0.30;;;23.90;60.80;;;;;;5066492;28;20036;-45
2021/07/15 10:47:34;;;;;;;0.22;0.20;;;23.80;60.90;;;;;;5060476;28;20025;-46
2021/07/15 10:50:00;;;;;;;1.30;0.30;;;23.80;60.80;;;;;;5071205;28;20048;-50
2021/07/15 10:52:27;;;;;;;0.20;0.20;;;23.90;60.80;;;;;;5067337;28;20024;-53
2021/07/15 10:54:55;;;;;;;0.50;0.20;;;23.90;60.90;;;;;;5064749;28;20028;-49
2021/07/15 10:57:22;;;;;;;0.68;0.20;;;23.90;60.90;;;;;;5064741;28;20028;-50
2021/07/15 10:59:49;;;;;;;0.73;0.35;;;23.80;61.00;;;;;;5065732;28;20048;-46
2021/07/15 11:02:26;;;;;;;1.23;0.20;;;23.80;61.00;;;;;;5070340;28;20029;-47
2021/07/15 11:04:53;;;;;;;0.38;0.20;;;23.80;60.90;;;;;;5062155;28;20050;-46
2021/07/15 11:07:34;;;;;;;0.75;0.20;;;23.80;60.80;;;;;;5062504;28;20025;-47
2021/07/15 11:10:15;;;;;;;3.33;0.38;;;23.90;61.60;;;;;;5069573;28;20035;-47
2021/07/15 11:12:52;;;;;;;0.32;0.30;;;23.90;60.90;;;;;;5058933;28;20040;-44
2021/07/15 11:15:18;;;;;;;0.35;0.30;;;23.80;60.90;;;;;;5057556;28;20174;-44
2021/07/15 11:17:47;;;;;;;0.28;0.28;;;23.90;60.80;;;;;;5067036;28;20075;-56
2021/07/15 11:20:30;;;;;;;0.65;0.50;;;23.90;60.90;;;;;;5063704;28;20047;-44
2021/07/15 11:23:00;;;;;;;0.52;0.30;;;23.90;60.90;;;;;;5057025;28;20032;-44
2021/07/15 11:25:31;;;;;;;1.00;0.32;;;23.90;60.80;;;;;;5065916;28;20078;-44
2021/07/15 11:28:10;;;;;;;0.40;0.20;;;23.90;60.90;;;;;;5056173;28;20163;-43
2021/07/15 11:30:36;;;;;;;0.30;0.30;;;23.80;60.90;;;;;;5072189;28;20020;-46
2021/07/15 11:33:29;;;;;;;1.05;0.60;;;23.90;60.60;;;;;;5043153;28;20052;-45
2021/07/15 11:36:07;;;;;;;1.35;0.20;;;23.90;60.80;;;;;;5063681;28;20053;-44
2021/07/15 11:38:35;;;;;;;2.63;0.32;;;23.90;60.60;;;;;;5062743;28;20052;-43
2021/07/15 11:41:03;;;;;;;0.73;0.30;;;23.90;60.70;;;;;;5055188;28;20052;-46
2021/07/15 11:43:36;;;;;;;0.52;0.30;;;23.90;60.70;;;;;;5061767;28;20036;-46
2021/07/15 11:46:03;;;;;;;0.82;0.30;;;23.90;60.60;;;;;;5065463;28;20059;-46
2021/07/15 11:49:00;;;;;;;0.45;0.20;;;23.90;60.80;;;;;;5071554;28;20021;-45
2021/07/15 11:51:36;;;;;;;0.32;0.20;;;23.90;60.60;;;;;;5073026;28;20591;-45
2021/07/15 11:54:56;;;;;;;0.38;0.30;;;23.90;60.60;;;;;;5056103;28;20039;-43
2021/07/15 11:57:23;;;;;;;0.25;0.20;;;23.90;60.50;;;;;;4999808;28;20072;-43
2021/07/15 12:00:10;;;;;;;0.98;0.25;;;23.90;60.50;;;;;;5040743;28;20048;-46
2021/07/15 12:02:41;;;;;;;0.30;0.30;;;23.90;60.50;;;;;;5054968;28;20048;-43
2021/07/15 12:05:22;;;;;;;0.55;0.30;;;23.90;60.60;;;;;;5066162;28;20037;-46
2021/07/15 12:08:11;;;;;;;0.45;0.30;;;23.80;60.90;;;;;;5063197;28;20107;-48
2021/07/15 12:10:48;;;;;;;0.30;0.30;;;23.90;60.60;;;;;;5064881;28;20072;-45
2021/07/15 12:13:16;;;;;;;0.93;0.30;;;23.90;60.60;;;;;;5063055;28;20059;-47
2021/07/15 12:15:44;;;;;;;0.85;0.30;;;23.90;60.60;;;;;;5061880;28;20029;-45
2021/07/15 12:18:11;;;;;;;0.57;0.20;;;23.90;60.60;;;;;;5060202;28;20545;-45
2021/07/15 12:20:58;;;;;;;0.30;0.30;;;23.80;60.60;;;;;;5060310;28;20497;-43
2021/07/15 12:23:32;;;;;;;0.20;0.20;;;23.80;60.40;;;;;;5067472;28;20036;-44
2021/07/15 12:25:59;;;;;;;0.25;0.25;;;23.80;60.50;;;;;;5054971;28;20065;-43
2021/07/15 12:28:29;;;;;;;0.90;0.40;;;23.80;60.40;;;;;;5067500;28;20029;-47
2021/07/15 12:30:57;;;;;;;0.30;0.30;;;23.90;60.50;;;;;;5060789;28;20024;-46
2021/07/15 12:33:54;;;;;;;1.38;0.30;;;23.90;60.40;;;;;;5054568;28;20422;-44
2021/07/15 12:36:21;;;;;;;0.20;0.20;;;23.90;60.30;;;;;;5068417;28;20047;-43
2021/07/15 12:38:52;;;;;;;0.50;0.50;;;23.90;60.30;;;;;;5037730;28;20339;-57
2021/07/15 12:41:32;;;;;;;1.67;0.20;;;23.90;60.20;;;;;;5070338;28;20055;-44
2021/07/15 12:44:02;;;;;;;0.95;0.30;;;23.90;60.20;;;;;;5071375;28;20535;-43
2021/07/15 12:46:36;;;;;;;0.40;0.20;;;23.90;60.20;;;;;;5056787;28;20063;-46
2021/07/15 12:49:14;;;;;;;1.10;0.40;;;23.90;60.10;;;;;;5065932;28;20039;-45
2021/07/15 12:51:42;;;;;;;0.65;0.50;;;23.90;60.00;;;;;;5055295;28;20029;-44
2021/07/15 12:54:09;;;;;;;0.20;0.20;;;23.90;60.10;;;;;;5057536;28;20580;-43
2021/07/15 12:56:37;;;;;;;0.60;0.40;;;24.00;60.10;;;;;;5067393;28;20024;-43
2021/07/15 12:59:13;;;;;;;0.25;0.20;;;24.00;60.00;;;;;;5062653;28;20115;-44
2021/07/15 13:01:42;;;;;;;0.63;0.32;;;24.00;60.00;;;;;;5063247;28;20052;-44